Time;durP1;ratioP1;P1;durP2;ratioP2;P2;SDS_P1;SDS_P2;PMS_P1;PMS_P2;Temp;Humidity;BMP_temperature;BMP_pressure;BME280_temperature;BME280_humidity;BME280_pressure;Samples;Min_cycle;Max_cycle;Signal;HPM_P1;HPM_P2
2022/10/04 00:00:11;;;;;;;11.57;4.63;;;14.20;99.90;;;;;;5028672;28;20029;-69
2022/10/04 00:02:38;;;;;;;17.67;5.18;;;14.10;99.90;;;;;;5022430;28;20139;-71
2022/10/04 00:05:12;;;;;;;16.20;5.25;;;14.20;99.90;;;;;;5031722;28;20167;-69
2022/10/04 00:07:46;;;;;;;15.15;5.30;;;14.20;99.90;;;;;;5032797;28;20116;-69
2022/10/04 00:10:32;;;;;;;15.23;5.25;;;14.20;99.90;;;;;;5033387;28;20082;-69
2022/10/04 00:13:04;;;;;;;16.02;4.95;;;14.10;99.90;;;;;;5030070;28;20033;-71
2022/10/04 00:15:31;;;;;;;;;;;14.20;99.90;;;;;;5045811;28;20028;-69
2022/10/04 00:18:18;;;;;;;14.70;4.90;;;14.20;99.90;;;;;;5032627;28;20374;-69
2022/10/04 00:20:49;;;;;;;15.25;4.53;;;14.20;99.90;;;;;;5024163;28;20021;-69
2022/10/04 00:23:27;;;;;;;16.33;5.37;;;14.10;99.90;;;;;;5032987;28;20033;-70
2022/10/04 00:26:00;;;;;;;13.32;5.22;;;14.10;99.90;;;;;;5029066;28;20033;-70
2022/10/04 00:28:26;;;;;;;12.60;5.53;;;14.20;99.90;;;;;;5032641;28;20030;-70
2022/10/04 00:31:08;;;;;;;12.25;4.75;;;14.20;99.90;;;;;;5031666;28;20036;-71
2022/10/04 00:33:54;;;;;;;16.38;5.30;;;14.20;99.90;;;;;;5032609;28;20064;-70
2022/10/04 00:36:22;;;;;;;16.80;5.15;;;14.20;99.90;;;;;;5030582;28;20065;-70
2022/10/04 00:39:03;;;;;;;16.30;4.80;;;14.10;99.90;;;;;;5030754;28;20037;-69
2022/10/04 00:41:47;;;;;;;12.95;4.95;;;14.10;99.90;;;;;;5032419;28;20057;-70
2022/10/04 00:44:32;;;;;;;17.95;6.13;;;14.00;99.90;;;;;;5032825;28;20033;-69
2022/10/04 00:47:00;;;;;;;15.07;4.80;;;14.00;99.90;;;;;;5032691;28;20057;-70
2022/10/04 00:49:34;;;;;;;12.10;4.72;;;13.90;99.90;;;;;;5032205;28;20471;-69
2022/10/04 00:52:05;;;;;;;11.20;4.63;;;13.90;99.90;;;;;;5016699;28;20035;-70
2022/10/04 00:54:31;;;;;;;10.88;4.80;;;13.90;99.90;;;;;;5032578;28;20036;-69
2022/10/04 00:57:18;;;;;;;15.23;5.00;;;13.90;99.90;;;;;;5032558;28;20037;-69
2022/10/04 00:59:48;;;;;;;13.70;4.55;;;13.90;99.90;;;;;;5029607;28;20028;-71
2022/10/04 01:02:20;;;;;;;16.80;6.18;;;13.80;99.90;;;;;;5032064;28;20378;-70
2022/10/04 01:04:59;;;;;;;14.85;5.15;;;13.90;99.90;;;;;;5032739;28;20048;-70
2022/10/04 01:08:13;;;;;;;16.15;5.82;;;13.90;99.90;;;;;;5032661;28;20383;-69
2022/10/04 01:10:51;;;;;;;14.52;5.10;;;13.80;99.90;;;;;;5000772;28;20057;-70
2022/10/04 01:13:20;;;;;;;16.83;5.65;;;13.80;99.90;;;;;;5027864;28;20087;-70
2022/10/04 01:16:03;;;;;;;19.30;5.57;;;13.80;99.90;;;;;;5032270;28;20087;-70
2022/10/04 01:18:31;;;;;;;17.92;5.88;;;13.70;99.90;;;;;;5029745;28;20049;-71
2022/10/04 01:21:07;;;;;;;12.98;4.88;;;13.70;99.90;;;;;;5032378;28;20025;-71
2022/10/04 01:23:42;;;;;;;20.08;6.22;;;13.70;99.90;;;;;;5032344;28;20034;-70
2022/10/04 01:26:25;;;;;;;15.45;6.22;;;13.60;99.90;;;;;;5032490;28;20022;-69
2022/10/04 01:28:52;;;;;;;12.57;5.40;;;13.60;99.90;;;;;;5032373;28;20029;-70
2022/10/04 01:31:18;;;;;;;16.13;5.80;;;13.60;99.90;;;;;;5031867;28;20495;-70
2022/10/04 01:33:43;;;;;;;15.63;6.15;;;13.60;99.90;;;;;;5032129;28;20045;-72
2022/10/04 01:36:09;;;;;;;18.58;6.22;;;13.60;99.90;;;;;;5030474;28;20029;-69
2022/10/04 01:38:35;;;;;;;15.57;6.10;;;13.60;99.90;;;;;;5032156;28;20040;-71
2022/10/04 01:41:04;;;;;;;13.98;5.75;;;13.60;99.90;;;;;;5031969;28;20026;-70
2022/10/04 01:43:35;;;;;;;18.17;6.00;;;13.50;99.90;;;;;;5032119;28;20022;-71
2022/10/04 01:46:11;;;;;;;14.80;6.18;;;13.50;99.90;;;;;;5032219;28;20022;-72
2022/10/04 01:48:41;;;;;;;17.98;6.97;;;13.40;99.90;;;;;;5032157;28;20034;-70
2022/10/04 01:51:15;;;;;;;15.50;6.57;;;13.30;99.90;;;;;;5032248;28;20032;-70
2022/10/04 01:53:50;;;;;;;21.02;6.80;;;13.30;99.90;;;;;;5028812;28;20025;-71
2022/10/04 01:56:20;;;;;;;15.40;6.78;;;13.20;99.90;;;;;;5031796;28;20032;-71
2022/10/04 01:58:51;;;;;;;18.05;7.32;;;13.10;99.90;;;;;;5033758;28;20041;-71
2022/10/04 02:01:42;;;;;;;16.97;7.37;;;13.00;99.90;;;;;;5039530;28;20390;-71
2022/10/04 02:04:13;;;;;;;15.88;7.22;;;13.00;99.90;;;;;;5038708;28;20175;-70
2022/10/04 02:06:42;;;;;;;17.90;7.60;;;12.90;99.90;;;;;;5039590;28;20018;-73
2022/10/04 02:09:19;;;;;;;18.75;7.38;;;12.80;99.90;;;;;;5039100;28;20029;-72
2022/10/04 02:11:51;;;;;;;20.50;7.70;;;12.80;99.90;;;;;;5042016;28;20074;-71
2022/10/04 02:14:23;;;;;;;21.75;7.65;;;12.80;99.90;;;;;;5031264;28;20467;-70
2022/10/04 02:16:52;;;;;;;16.83;8.00;;;12.70;99.90;;;;;;5033329;28;20090;-72
2022/10/04 02:19:24;;;;;;;17.40;7.85;;;12.70;99.90;;;;;;5030059;28;20055;-71
2022/10/04 02:21:51;;;;;;;19.83;7.87;;;12.60;99.90;;;;;;5032750;28;20033;-72
2022/10/04 02:24:17;;;;;;;16.35;7.88;;;12.60;99.90;;;;;;5027020;28;20270;-70
2022/10/04 02:26:49;;;;;;;16.92;7.82;;;12.60;99.90;;;;;;5033788;28;20375;-68
2022/10/04 02:29:14;;;;;;;18.73;8.57;;;12.50;99.90;;;;;;5034105;28;20437;-71
2022/10/04 02:34:24;;;;;;;21.25;8.25;;;12.50;99.90;;;;;;5019382;28;20390;-69
2022/10/04 02:36:50;;;;;;;19.38;8.07;;;12.40;99.90;;;;;;5033640;28;20025;-71
2022/10/04 02:39:23;;;;;;;18.90;8.63;;;12.40;99.90;;;;;;5034874;28;20463;-70
2022/10/04 02:41:54;;;;;;;21.70;8.38;;;12.40;99.90;;;;;;5030861;28;20013;-69
2022/10/04 02:44:27;;;;;;;21.33;8.85;;;12.30;99.90;;;;;;5018750;28;20021;-68
2022/10/04 02:47:05;;;;;;;18.77;8.65;;;12.30;99.90;;;;;;5035115;28;20025;-71
2022/10/04 02:49:40;;;;;;;20.75;9.68;;;12.30;99.90;;;;;;5035148;28;20021;-71
2022/10/04 02:52:34;;;;;;;20.58;9.50;;;12.20;99.90;;;;;;5034954;28;20036;-71
2022/10/04 02:55:22;;;;;;;21.63;9.85;;;12.20;99.90;;;;;;5033114;28;20042;-71
2022/10/04 02:57:51;;;;;;;25.17;9.70;;;12.20;99.90;;;;;;5034941;28;20072;-71
2022/10/04 03:00:30;;;;;;;22.27;10.50;;;12.20;99.90;;;;;;5034897;28;20048;-69
2022/10/04 03:03:17;;;;;;;22.35;10.93;;;12.20;99.90;;;;;;5034871;28;20018;-71
2022/10/04 03:06:11;;;;;;;15.70;8.07;;;12.10;99.90;;;;;;5034882;28;20551;-71
2022/10/04 03:08:42;;;;;;;24.35;10.70;;;12.10;99.90;;;;;;5018088;28;20033;-71
2022/10/04 03:11:10;;;;;;;27.15;10.18;;;12.00;99.90;;;;;;5034484;28;20072;-72
2022/10/04 03:13:38;;;;;;;21.08;10.27;;;12.00;99.90;;;;;;5032479;28;20108;-71
2022/10/04 03:16:05;;;;;;;23.65;10.48;;;12.00;99.90;;;;;;5034537;28;20022;-70
2022/10/04 03:18:33;;;;;;;24.75;11.10;;;12.00;99.90;;;;;;5034267;28;20065;-71
2022/10/04 03:21:03;;;;;;;21.83;11.30;;;11.90;99.90;;;;;;5034186;28;20022;-70
2022/10/04 03:23:30;;;;;;;21.77;10.50;;;11.90;99.90;;;;;;5034111;28;20017;-71
2022/10/04 03:26:05;;;;;;;26.05;11.13;;;11.90;99.90;;;;;;5033852;28;20179;-72
2022/10/04 03:28:31;;;;;;;21.42;10.00;;;11.90;99.90;;;;;;5034119;28;20025;-72
2022/10/04 03:30:57;;;;;;;22.08;9.32;;;11.80;99.90;;;;;;5034277;28;20029;-71
2022/10/04 03:33:25;;;;;;;23.02;10.63;;;11.80;99.90;;;;;;5032002;28;20057;-70
2022/10/04 03:35:57;;;;;;;24.85;10.77;;;11.80;99.90;;;;;;5034159;28;20040;-71
2022/10/04 03:38:25;;;;;;;26.38;10.48;;;11.80;99.90;;;;;;5017911;28;20041;-71
2022/10/04 03:40:57;;;;;;;25.00;11.70;;;11.80;99.90;;;;;;5035231;28;20025;-69
2022/10/04 03:43:27;;;;;;;26.50;12.52;;;11.70;99.90;;;;;;5049019;28;20033;-71
2022/10/04 03:45:54;;;;;;;23.63;11.20;;;11.70;99.90;;;;;;5043768;28;20033;-70
2022/10/04 03:48:42;;;;;;;25.58;11.73;;;11.70;99.90;;;;;;5032737;28;20095;-71
2022/10/04 03:51:15;;;;;;;24.20;12.13;;;11.70;99.90;;;;;;5033661;28;20036;-72
2022/10/04 03:53:50;;;;;;;22.20;12.23;;;11.70;99.90;;;;;;5033836;28;20079;-71
2022/10/04 03:56:35;;;;;;;27.70;11.82;;;11.60;99.90;;;;;;5033367;28;20037;-71
2022/10/04 03:59:05;;;;;;;28.02;12.77;;;11.60;99.90;;;;;;5033555;28;20041;-72
2022/10/04 04:01:48;;;;;;;24.10;12.82;;;11.60;99.90;;;;;;5033577;28;20108;-71
2022/10/04 04:04:28;;;;;;;27.00;13.27;;;11.60;99.90;;;;;;5033395;28;20030;-72
2022/10/04 04:07:04;;;;;;;27.27;13.80;;;11.60;99.90;;;;;;5030161;28;20029;-71
2022/10/04 04:09:43;;;;;;;30.17;14.80;;;11.60;99.90;;;;;;5033726;28;20017;-71
2022/10/04 04:12:38;;;;;;;25.60;13.70;;;11.60;99.90;;;;;;5031992;28;20466;-72
2022/10/04 04:15:09;;;;;;;33.05;14.73;;;11.60;99.90;;;;;;5031537;28;20038;-71
2022/10/04 04:17:43;;;;;;;25.80;12.52;;;11.50;99.90;;;;;;5033344;28;20030;-72
2022/10/04 04:20:38;;;;;;;30.10;14.38;;;11.50;99.90;;;;;;5033166;28;20028;-70
2022/10/04 04:23:13;;;;;;;28.38;15.18;;;11.50;99.90;;;;;;5032546;28;20092;-71
2022/10/04 04:25:45;;;;;;;30.35;14.07;;;11.50;99.90;;;;;;5032723;28;20018;-71
2022/10/04 04:28:26;;;;;;;32.90;15.77;;;11.50;99.90;;;;;;5033160;28;20021;-73
2022/10/04 04:30:57;;;;;;;30.42;15.63;;;11.50;99.90;;;;;;5033084;28;20025;-73
2022/10/04 04:33:29;;;;;;;28.55;14.15;;;11.50;99.90;;;;;;5033197;28;20021;-71
2022/10/04 04:36:02;;;;;;;29.73;15.40;;;11.50;99.90;;;;;;5032938;28;20021;-71
2022/10/04 04:38:27;;;;;;;28.23;12.88;;;11.50;99.90;;;;;;5032016;28;20063;-71
2022/10/04 04:40:54;;;;;;;31.42;15.85;;;11.50;99.90;;;;;;5032733;28;20100;-72
2022/10/04 04:43:23;;;;;;;28.23;14.15;;;11.50;99.90;;;;;;5032842;28;20013;-72
2022/10/04 04:45:50;;;;;;;30.55;16.13;;;11.50;99.90;;;;;;5032945;28;20503;-72
2022/10/04 04:48:17;;;;;;;31.10;17.00;;;11.50;99.90;;;;;;5032700;28;20048;-71
2022/10/04 04:50:57;;;;;;;31.98;14.27;;;11.40;99.90;;;;;;5032595;28;20032;-70
2022/10/04 04:53:26;;;;;;;31.48;15.35;;;11.40;99.90;;;;;;5017559;28;20098;-71
2022/10/04 04:55:59;;;;;;;32.83;14.35;;;11.40;99.90;;;;;;5032740;28;20034;-71
2022/10/04 04:58:31;;;;;;;30.00;16.00;;;11.40;99.90;;;;;;5032702;28;20415;-70
2022/10/04 05:01:00;;;;;;;25.40;14.82;;;11.40;99.90;;;;;;5032536;28;20036;-71
2022/10/04 05:03:28;;;;;;;33.05;15.35;;;11.40;99.90;;;;;;5032510;28;20379;-73
2022/10/04 05:05:56;;;;;;;31.98;14.50;;;11.30;99.90;;;;;;5032726;28;20049;-74
2022/10/04 05:08:26;;;;;;;35.47;15.77;;;11.30;99.90;;;;;;5032434;28;20029;-71
2022/10/04 05:11:08;;;;;;;28.67;13.20;;;11.30;99.90;;;;;;5032287;28;20048;-71
2022/10/04 05:13:41;;;;;;;29.55;15.98;;;11.30;99.90;;;;;;5030757;28;20032;-70
2022/10/04 05:16:18;;;;;;;35.88;17.42;;;11.30;99.90;;;;;;5032339;28;20486;-71
2022/10/04 05:18:45;;;;;;;36.17;15.95;;;11.30;99.90;;;;;;5032589;28;20364;-70
2022/10/04 05:21:30;;;;;;;38.72;16.52;;;11.30;99.90;;;;;;5032353;28;20475;-70
2022/10/04 05:24:05;;;;;;;34.55;16.15;;;11.30;99.90;;;;;;5032036;28;20487;-71
2022/10/04 05:26:31;;;;;;;26.88;14.15;;;11.20;99.90;;;;;;5032609;28;20025;-71
2022/10/04 05:29:01;;;;;;;30.50;14.70;;;11.20;99.90;;;;;;5032320;28;20703;-70
2022/10/04 05:31:35;;;;;;;31.05;14.02;;;11.20;99.90;;;;;;5032379;28;20093;-71
2022/10/04 05:34:05;;;;;;;31.13;16.88;;;11.20;99.90;;;;;;5032497;28;20467;-70
2022/10/04 05:36:45;;;;;;;31.73;14.75;;;11.20;99.90;;;;;;5032300;28;20088;-70
2022/10/04 05:39:23;;;;;;;30.13;15.65;;;11.20;99.90;;;;;;5032081;28;20434;-71
2022/10/04 05:42:00;;;;;;;34.30;16.48;;;11.10;99.90;;;;;;5032163;28;20045;-71
2022/10/04 05:44:34;;;;;;;29.25;15.25;;;11.10;99.90;;;;;;5032597;28;20075;-71
2022/10/04 05:47:02;;;;;;;34.22;14.65;;;11.10;99.90;;;;;;5032093;28;20033;-71
2022/10/04 05:49:33;;;;;;;31.30;13.57;;;11.00;99.90;;;;;;5035104;28;20043;-71
2022/10/04 05:52:01;;;;;;;28.52;15.32;;;11.00;99.90;;;;;;5036206;28;20020;-71
2022/10/04 05:54:31;;;;;;;28.20;14.80;;;11.00;99.90;;;;;;5036066;28;20040;-72
2022/10/04 05:57:05;;;;;;;32.15;15.57;;;11.00;99.90;;;;;;5036107;28;20037;-71
2022/10/04 05:59:55;;;;;;;33.70;16.05;;;11.00;99.90;;;;;;5036139;28;20042;-70
2022/10/04 06:02:36;;;;;;;32.25;16.17;;;11.00;99.90;;;;;;5035599;28;20013;-70
2022/10/04 06:05:27;;;;;;;34.20;15.18;;;11.00;99.90;;;;;;5035286;28;20044;-70
2022/10/04 06:07:57;;;;;;;31.80;16.48;;;11.00;99.90;;;;;;5035666;28;20120;-70
2022/10/04 06:10:42;;;;;;;30.58;14.82;;;11.00;99.90;;;;;;5035791;28;20026;-71
2022/10/04 06:13:50;;;;;;;34.92;15.38;;;11.00;99.90;;;;;;5035696;28;20045;-71
2022/10/04 06:16:39;;;;;;;32.47;14.57;;;11.00;99.90;;;;;;5035431;28;20060;-70
2022/10/04 06:19:26;;;;;;;29.67;15.68;;;11.00;99.90;;;;;;5035548;28;20056;-70
2022/10/04 06:22:14;;;;;;;29.38;15.02;;;11.00;99.90;;;;;;5033982;28;20018;-71
2022/10/04 06:24:44;;;;;;;35.50;15.48;;;10.90;99.90;;;;;;5036085;28;20032;-71
2022/10/04 06:27:27;;;;;;;30.95;13.65;;;11.00;99.90;;;;;;5055164;28;20035;-71
2022/10/04 06:30:03;;;;;;;31.88;15.45;;;11.00;99.90;;;;;;5055524;28;20360;-71
2022/10/04 06:32:38;;;;;;;33.13;13.05;;;11.00;99.90;;;;;;5055106;28;20092;-71
2022/10/04 06:35:30;;;;;;;32.00;12.95;;;11.00;99.90;;;;;;5055008;28;20029;-71
2022/10/04 06:37:56;;;;;;;;;;;11.00;99.90;;;;;;5040728;28;20108;-71
2022/10/04 06:40:53;;;;;;;32.88;12.65;;;11.10;99.90;;;;;;5034981;28;19991;-71
2022/10/04 06:43:36;;;;;;;41.90;16.92;;;11.10;99.90;;;;;;5035039;28;20033;-71
2022/10/04 06:46:20;;;;;;;31.70;12.77;;;11.10;99.90;;;;;;5032033;28;20108;-71
2022/10/04 06:49:26;;;;;;;29.88;13.00;;;11.20;99.90;;;;;;5033426;28;20034;-71
2022/10/04 06:52:01;;;;;;;30.55;14.63;;;11.30;99.90;;;;;;5015185;28;20087;-71
2022/10/04 06:55:12;;;;;;;29.35;14.25;;;11.40;99.90;;;;;;5029250;28;20057;-71
2022/10/04 06:58:07;;;;;;;30.88;14.70;;;11.50;99.90;;;;;;5018115;28;20491;-71
2022/10/04 07:00:58;;;;;;;29.25;13.00;;;11.70;99.90;;;;;;5033671;28;20018;-71
2022/10/04 07:03:35;;;;;;;26.83;13.27;;;11.80;99.90;;;;;;5034282;28;20044;-71
2022/10/04 07:06:04;;;;;;;27.08;13.43;;;12.00;99.90;;;;;;5034290;28;20018;-71
2022/10/04 07:08:46;;;;;;;24.58;11.80;;;12.10;99.90;;;;;;5034739;28;20498;-71
2022/10/04 07:11:24;;;;;;;29.55;12.75;;;12.30;99.90;;;;;;5034088;28;20052;-71
2022/10/04 07:14:01;;;;;;;28.00;11.80;;;12.40;99.90;;;;;;5034594;28;20029;-70
2022/10/04 07:16:49;;;;;;;27.58;12.25;;;12.60;99.90;;;;;;5033136;28;20034;-70
2022/10/04 07:19:18;;;;;;;27.10;12.23;;;12.60;99.90;;;;;;5034259;28;20099;-70
2022/10/04 07:21:58;;;;;;;24.27;11.95;;;12.70;99.90;;;;;;5032225;28;20033;-70
2022/10/04 07:24:47;;;;;;;26.63;12.82;;;12.80;99.90;;;;;;5034372;28;20060;-70
2022/10/04 07:27:18;;;;;;;23.42;12.60;;;12.90;99.90;;;;;;5033929;28;20029;-70
2022/10/04 07:29:51;;;;;;;27.93;11.93;;;13.00;99.90;;;;;;5034677;28;20105;-70
2022/10/04 07:32:23;;;;;;;24.13;10.68;;;13.00;99.90;;;;;;5034043;28;20033;-70
2022/10/04 07:35:00;;;;;;;24.33;11.52;;;13.10;99.90;;;;;;5033857;28;20092;-70
2022/10/04 07:37:28;;;;;;;25.38;11.95;;;13.20;99.90;;;;;;5033157;28;20139;-70
2022/10/04 07:40:17;;;;;;;24.90;11.35;;;13.20;99.90;;;;;;5033699;28;20112;-70
2022/10/04 07:42:58;;;;;;;23.80;11.05;;;13.20;99.90;;;;;;5033471;28;20033;-69
2022/10/04 07:45:47;;;;;;;30.93;12.50;;;13.30;99.90;;;;;;5033334;28;20048;-71
2022/10/04 07:48:14;;;;;;;23.67;11.52;;;13.30;99.90;;;;;;5033334;28;20267;-69
2022/10/04 07:50:54;;;;;;;22.80;10.77;;;13.60;99.90;;;;;;5031453;28;20038;-70
2022/10/04 07:53:48;;;;;;;23.33;10.93;;;13.70;99.90;;;;;;5033759;28;20087;-70
2022/10/04 07:56:16;;;;;;;23.02;10.20;;;13.90;99.90;;;;;;5008164;28;20038;-69
2022/10/04 07:59:05;;;;;;;25.40;10.63;;;14.00;99.90;;;;;;5013451;28;20495;-70
2022/10/04 08:02:00;;;;;;;22.67;10.43;;;14.20;99.90;;;;;;5033430;28;20075;-70
2022/10/04 08:04:57;;;;;;;20.48;10.60;;;14.50;99.90;;;;;;5032841;28;20078;-70
2022/10/04 08:07:48;;;;;;;22.75;10.70;;;14.80;99.90;;;;;;5032951;28;20044;-70
2022/10/04 08:10:55;;;;;;;24.38;12.15;;;15.00;99.90;;;;;;5032306;28;20139;-70
2022/10/04 08:13:28;;;;;;;23.65;9.32;;;15.10;99.90;;;;;;5032791;28;20037;-70
2022/10/04 08:16:01;;;;;;;18.75;8.43;;;15.10;99.90;;;;;;5032693;28;20021;-70
2022/10/04 08:19:06;;;;;;;20.38;9.23;;;15.20;99.90;;;;;;5028690;28;20042;-71
2022/10/04 08:21:44;;;;;;;15.52;8.07;;;15.80;99.90;;;;;;5013590;28;20487;-70
2022/10/04 08:24:25;;;;;;;17.67;8.23;;;16.20;99.90;;;;;;5032433;28;20083;-70
2022/10/04 08:27:08;;;;;;;21.73;8.87;;;16.20;99.90;;;;;;5033145;28;20087;-70
2022/10/04 08:29:42;;;;;;;19.10;7.82;;;16.00;99.90;;;;;;5033002;28;20529;-70
2022/10/04 08:32:13;;;;;;;18.35;8.25;;;16.50;99.90;;;;;;5032933;28;20036;-71
2022/10/04 08:34:51;;;;;;;21.60;10.35;;;17.10;99.90;;;;;;5032670;28;20025;-70
2022/10/04 08:37:23;;;;;;;17.48;8.52;;;17.60;99.90;;;;;;5033033;28;20136;-69
2022/10/04 08:40:15;;;;;;;20.55;10.27;;;18.20;99.90;;;;;;5031315;28;20060;-69
2022/10/04 08:42:54;;;;;;;19.42;9.38;;;18.60;99.90;;;;;;5033109;28;20029;-70
2022/10/04 08:45:44;;;;;;;20.58;10.30;;;19.40;99.90;;;;;;5028000;28;20538;-70
2022/10/04 08:48:28;;;;;;;21.08;9.30;;;20.10;99.90;;;;;;5025430;28;20460;-70
2022/10/04 08:50:59;;;;;;;17.58;9.13;;;20.30;99.90;;;;;;5032596;28;20021;-70
2022/10/04 08:54:10;;;;;;;23.33;9.35;;;20.10;99.90;;;;;;5016311;28;20034;-70
2022/10/04 08:56:41;;;;;;;20.77;8.77;;;20.10;99.90;;;;;;5031076;28;20037;-69
2022/10/04 08:59:45;;;;;;;15.32;8.32;;;20.60;99.90;;;;;;5032199;28;20205;-70
2022/10/04 09:02:35;;;;;;;20.52;9.35;;;21.20;99.80;;;;;;5019929;28;20034;-70
2022/10/04 09:05:25;;;;;;;21.38;8.68;;;21.80;99.00;;;;;;5018343;28;20025;-71
2022/10/04 09:07:56;;;;;;;22.15;10.27;;;21.60;98.90;;;;;;5018183;28;20037;-69
2022/10/04 09:10:56;;;;;;;17.00;8.38;;;21.20;99.10;;;;;;5032465;28;20079;-69
2022/10/04 09:13:46;;;;;;;18.25;9.18;;;20.70;99.70;;;;;;5029421;28;20041;-70
2022/10/04 09:16:34;;;;;;;17.63;8.90;;;20.30;99.90;;;;;;5032174;28;20025;-69
2022/10/04 09:19:29;;;;;;;18.55;9.57;;;20.20;99.90;;;;;;5032365;28;20467;-69
2022/10/04 09:21:55;;;;;;;14.07;7.85;;;20.10;99.90;;;;;;5017585;28;20759;-70
2022/10/04 09:24:33;;;;;;;16.77;7.80;;;20.20;99.90;;;;;;5036453;28;20529;-69
2022/10/04 09:27:41;;;;;;;16.42;7.93;;;20.40;99.90;;;;;;5038832;28;20029;-69
2022/10/04 09:30:18;;;;;;;19.60;9.25;;;20.50;99.90;;;;;;5034298;28;20033;-69
2022/10/04 09:33:11;;;;;;;17.38;8.45;;;21.20;99.90;;;;;;5037628;28;20025;-70
2022/10/04 09:35:46;;;;;;;17.60;8.13;;;21.90;98.80;;;;;;5038967;28;20525;-70
2022/10/04 09:38:57;;;;;;;16.27;7.47;;;22.30;98.30;;;;;;5037344;28;20067;-70
2022/10/04 09:41:51;;;;;;;16.70;8.15;;;22.80;97.40;;;;;;5019318;28;20029;-70
2022/10/04 09:44:26;;;;;;;17.80;7.93;;;23.20;97.10;;;;;;5031476;28;20033;-70
2022/10/04 09:47:24;;;;;;;16.08;7.78;;;23.60;96.20;;;;;;5029746;28;20105;-69
2022/10/04 09:50:23;;;;;;;11.60;5.22;;;23.80;95.70;;;;;;5029981;28;20025;-71
2022/10/04 09:53:07;;;;;;;14.63;8.25;;;23.80;95.40;;;;;;5036929;28;20550;-69
2022/10/04 09:55:54;;;;;;;16.50;6.88;;;23.30;95.40;;;;;;5038064;28;20029;-70
2022/10/04 09:58:28;;;;;;;15.93;7.07;;;22.40;96.60;;;;;;5035050;28;20114;-70
2022/10/04 10:01:17;;;;;;;15.60;7.40;;;21.50;98.30;;;;;;5037793;28;20028;-71
2022/10/04 10:04:03;;;;;;;12.25;6.85;;;21.10;99.10;;;;;;5037615;28;20103;-71
2022/10/04 10:06:45;;;;;;;14.05;5.82;;;21.40;98.70;;;;;;5036947;28;20034;-69
2022/10/04 10:09:19;;;;;;;;;;;22.10;97.70;;;;;;5038980;28;20541;-69
2022/10/04 10:15:10;;;;;;;10.32;5.55;;;22.80;96.20;;;;;;5038226;28;20510;-70
2022/10/04 10:18:01;;;;;;;12.43;6.15;;;22.50;96.80;;;;;;5037342;28;20786;-71
2022/10/04 10:20:49;;;;;;;12.17;6.17;;;22.60;96.60;;;;;;5019551;28;20022;-70
2022/10/04 10:23:49;;;;;;;11.93;6.03;;;22.40;96.80;;;;;;5031407;28;20021;-69
2022/10/04 10:26:50;;;;;;;16.33;6.60;;;22.00;97.50;;;;;;5021179;28;20025;-69
2022/10/04 10:29:36;;;;;;;13.57;6.35;;;21.90;97.90;;;;;;5038535;28;20022;-69
2022/10/04 10:32:33;;;;;;;12.35;5.10;;;21.90;98.20;;;;;;5038241;28;20033;-70
2022/10/04 10:35:26;;;;;;;12.82;5.78;;;21.90;97.60;;;;;;5035715;28;20037;-70
2022/10/04 10:38:13;;;;;;;18.30;7.00;;;21.70;97.80;;;;;;5035152;28;20128;-71
2022/10/04 10:41:00;;;;;;;13.60;6.22;;;21.00;98.80;;;;;;5034956;28;20024;-69
2022/10/04 10:43:45;;;;;;;13.45;6.05;;;20.70;99.20;;;;;;5035301;28;20057;-70
2022/10/04 10:46:14;;;;;;;15.90;6.65;;;20.10;99.90;;;;;;5035235;28;20029;-71
2022/10/04 10:49:04;;;;;;;13.32;6.05;;;19.90;99.90;;;;;;5035287;28;20021;-69
2022/10/04 10:51:54;;;;;;;16.00;6.38;;;20.10;99.90;;;;;;5035071;28;20029;-71
2022/10/04 10:54:38;;;;;;;14.18;5.95;;;21.00;99.70;;;;;;5035010;28;20025;-71
2022/10/04 10:57:33;;;;;;;9.05;4.82;;;21.70;98.30;;;;;;5034504;28;20032;-70
2022/10/04 11:00:22;;;;;;;13.10;6.18;;;22.10;97.60;;;;;;5034963;28;20026;-70
2022/10/04 11:03:04;;;;;;;13.38;5.85;;;22.00;97.80;;;;;;5034609;28;20033;-71
2022/10/04 11:05:52;;;;;;;10.52;4.85;;;21.80;96.90;;;;;;5034967;28;20420;-69
2022/10/04 11:08:47;;;;;;;12.05;5.70;;;21.30;97.20;;;;;;5034628;28;20534;-70
2022/10/04 11:11:31;;;;;;;13.32;4.97;;;21.00;97.40;;;;;;5034470;28;20056;-71
2022/10/04 11:14:34;;;;;;;12.93;5.00;;;20.70;97.80;;;;;;5034497;28;20033;-70
2022/10/04 11:17:16;;;;;;;10.77;4.90;;;20.70;97.80;;;;;;5034605;28;20025;-70
2022/10/04 11:20:28;;;;;;;14.15;5.10;;;20.50;97.60;;;;;;5034422;28;20025;-70
2022/10/04 11:23:18;;;;;;;9.35;4.43;;;20.50;98.00;;;;;;5012213;28;20026;-70
2022/10/04 11:26:23;;;;;;;11.77;5.47;;;20.20;98.30;;;;;;5032954;28;20459;-70
2022/10/04 11:28:57;;;;;;;12.25;5.10;;;19.90;98.80;;;;;;5034160;28;20040;-69
2022/10/04 11:31:34;;;;;;;13.93;5.82;;;19.80;98.90;;;;;;5040933;28;20079;-70
2022/10/04 11:34:22;;;;;;;10.70;4.53;;;19.70;99.30;;;;;;5051946;28;20033;-70
2022/10/04 11:37:17;;;;;;;8.88;4.18;;;19.60;99.30;;;;;;5027750;28;20422;-70
2022/10/04 11:40:08;;;;;;;15.02;6.15;;;19.50;99.10;;;;;;5031722;28;20045;-70
2022/10/04 11:43:01;;;;;;;8.88;3.75;;;19.50;99.60;;;;;;5013066;28;20025;-70
2022/10/04 11:45:38;;;;;;;8.77;4.38;;;19.80;99.00;;;;;;5013047;28;20144;-70
2022/10/04 11:48:43;;;;;;;9.65;4.18;;;20.40;98.60;;;;;;5014183;28;20028;-69
2022/10/04 11:51:25;;;;;;;11.27;4.53;;;21.00;97.60;;;;;;5013884;28;20060;-69
2022/10/04 11:54:02;;;;;;;10.50;4.05;;;21.00;97.00;;;;;;5028494;28;20112;-70
2022/10/04 11:56:28;;;;;;;11.10;4.38;;;20.80;97.00;;;;;;5033804;28;20028;-70
2022/10/04 11:59:23;;;;;;;11.05;4.35;;;20.90;97.00;;;;;;5033892;28;20034;-69
2022/10/04 12:02:28;;;;;;;9.80;5.10;;;21.30;96.30;;;;;;5033902;28;20033;-69
2022/10/04 12:04:53;;;;;;;10.55;4.10;;;21.80;96.10;;;;;;5033835;28;20029;-69
2022/10/04 12:07:40;;;;;;;11.05;4.75;;;22.20;95.90;;;;;;5033364;28;20033;-69
2022/10/04 12:10:28;;;;;;;7.32;3.58;;;22.50;95.30;;;;;;5050442;28;20035;-70
2022/10/04 12:13:08;;;;;;;5.65;3.17;;;22.70;94.50;;;;;;5047483;28;20132;-69
2022/10/04 12:15:44;;;;;;;7.97;3.60;;;22.70;94.30;;;;;;5042501;28;20034;-69
2022/10/04 12:18:25;;;;;;;7.70;3.75;;;22.60;94.40;;;;;;5033487;28;20044;-70
2022/10/04 12:21:14;;;;;;;11.80;4.13;;;22.90;94.30;;;;;;5033363;28;20083;-69
2022/10/04 12:24:04;;;;;;;9.90;4.32;;;23.40;94.10;;;;;;5033655;28;20083;-69
2022/10/04 12:27:12;;;;;;;10.40;4.63;;;23.60;93.60;;;;;;5030543;28;20028;-69
2022/10/04 12:30:18;;;;;;;10.00;3.92;;;23.70;93.40;;;;;;5031590;28;20061;-69
2022/10/04 12:33:25;;;;;;;9.50;3.13;;;23.70;92.80;;;;;;5033164;28;20030;-70
2022/10/04 12:36:12;;;;;;;9.32;4.43;;;23.60;92.60;;;;;;5032746;28;20348;-69
2022/10/04 12:39:04;;;;;;;12.35;4.07;;;23.40;94.00;;;;;;5032408;28;20033;-69
2022/10/04 12:42:05;;;;;;;10.38;4.10;;;24.00;93.70;;;;;;5031988;28;20490;-70
2022/10/04 12:45:01;;;;;;;8.70;3.90;;;24.30;92.80;;;;;;5031687;28;20061;-70
2022/10/04 12:47:43;;;;;;;8.80;4.22;;;23.90;92.70;;;;;;5032318;28;20033;-70
2022/10/04 12:50:39;;;;;;;9.15;3.70;;;23.40;93.40;;;;;;5032469;28;20124;-69
2022/10/04 12:53:23;;;;;;;8.30;3.78;;;23.10;93.50;;;;;;5032587;28;20112;-69
2022/10/04 12:56:03;;;;;;;9.65;3.63;;;22.50;93.90;;;;;;5031576;28;20112;-70
2022/10/04 12:58:57;;;;;;;11.93;4.35;;;22.10;94.40;;;;;;5030370;28;20402;-69
2022/10/04 13:01:50;;;;;;;6.82;3.75;;;21.70;95.50;;;;;;5023079;28;20384;-69
2022/10/04 13:04:38;;;;;;;9.40;4.57;;;21.40;95.80;;;;;;5030814;28;20471;-69
2022/10/04 13:08:08;;;;;;;8.40;4.50;;;21.20;96.50;;;;;;5032470;28;20484;-70
2022/10/04 13:11:14;;;;;;;11.93;4.30;;;21.20;96.90;;;;;;4989159;28;20045;-69
2022/10/04 13:14:17;;;;;;;6.47;3.22;;;21.10;96.50;;;;;;4990102;28;20057;-70
2022/10/04 13:16:54;;;;;;;11.50;5.35;;;21.00;96.80;;;;;;5032264;28;20045;-70
2022/10/04 13:19:56;;;;;;;11.73;4.78;;;21.00;97.50;;;;;;5032078;28;20064;-69
2022/10/04 13:22:44;;;;;;;9.65;4.75;;;21.10;97.30;;;;;;5032200;28;20033;-69
2022/10/04 13:25:32;;;;;;;11.18;5.40;;;20.90;97.10;;;;;;5032507;28;20029;-70
2022/10/04 13:28:22;;;;;;;12.07;4.50;;;20.70;97.80;;;;;;5031576;28;20475;-69
2022/10/04 13:31:08;;;;;;;9.45;5.03;;;20.70;98.10;;;;;;5023643;28;20033;-69
2022/10/04 13:33:40;;;;;;;10.70;4.97;;;20.60;97.80;;;;;;5031822;28;20391;-69
2022/10/04 13:36:28;;;;;;;9.40;5.00;;;20.50;98.60;;;;;;5032284;28;20032;-70
2022/10/04 13:39:23;;;;;;;15.77;5.75;;;20.60;98.30;;;;;;5030388;28;20077;-69
2022/10/04 13:42:26;;;;;;;11.38;5.00;;;20.60;98.70;;;;;;5021503;28;20088;-69
2022/10/04 13:44:58;;;;;;;9.57;4.80;;;20.70;98.30;;;;;;5013670;28;20041;-69
2022/10/04 13:47:26;;;;;;;;;;;20.70;98.30;;;;;;5032349;28;20534;-69
2022/10/04 13:50:13;;;;;;;12.07;4.60;;;20.80;98.60;;;;;;5032508;28;19905;-69